Terminal Aerodrome Forecast
Issued by NWS

Home | Current Version | Previous Version | Text Only | Print | Product List | Glossary On
Versions: 1 2 3 4 5 6 7 8 9 10 11 12 13 14 15 16 17 18 19 20 21 22 23 24 25 26 27 28 29 30 31 32 33 34 35 36 37 38
782
FTUS43 KLSX 300520
TAFUIN
TAF
KUIN 300520Z 3006/0106 08015G22KT P6SM VCSH SCT020 OVC080
     FM300800 08015G23KT 4SM -SHRA BR VCTS OVC010CB
      TEMPO 3009/3011 2SM SHRA OVC020
     FM301500 09014KT P6SM OVC015
     FM302100 24010KT P6SM BKN020
     FM010300 05006KT P6SM BKN015=

USA.gov is the U.S. government's official web portal to all federal, state and local government web resources and services.